sensor_id;sensor_type;location;lat;lon;timestamp;P1;durP1;ratioP1;P2;durP2;ratioP2
84796;SDS011;75028;51.374;21.078;2024-03-08T00:01:13;136.00;;;57.60;;
84796;SDS011;75028;51.374;21.078;2024-03-08T00:03:44;140.75;;;58.08;;
84796;SDS011;75028;51.374;21.078;2024-03-08T00:06:10;154.05;;;57.92;;
84796;SDS011;75028;51.374;21.078;2024-03-08T00:08:36;142.13;;;54.30;;
84796;SDS011;75028;51.374;21.078;2024-03-08T00:11:02;155.70;;;57.50;;
84796;SDS011;75028;51.374;21.078;2024-03-08T00:13:28;149.05;;;56.33;;
84796;SDS011;75028;51.374;21.078;2024-03-08T00:15:54;147.07;;;59.60;;
84796;SDS011;75028;51.374;21.078;2024-03-08T00:18:23;149.95;;;60.45;;
84796;SDS011;75028;51.374;21.078;2024-03-08T00:20:49;151.00;;;57.10;;
84796;SDS011;75028;51.374;21.078;2024-03-08T00:23:16;139.82;;;58.97;;
84796;SDS011;75028;51.374;21.078;2024-03-08T00:25:42;138.27;;;56.58;;
84796;SDS011;75028;51.374;21.078;2024-03-08T00:28:08;135.57;;;50.75;;
84796;SDS011;75028;51.374;21.078;2024-03-08T00:30:34;131.93;;;54.25;;
84796;SDS011;75028;51.374;21.078;2024-03-08T00:33:00;139.25;;;56.28;;
84796;SDS011;75028;51.374;21.078;2024-03-08T00:37:53;107.72;;;44.78;;
84796;SDS011;75028;51.374;21.078;2024-03-08T00:40:22;128.80;;;52.17;;
84796;SDS011;75028;51.374;21.078;2024-03-08T00:42:48;120.90;;;50.50;;
84796;SDS011;75028;51.374;21.078;2024-03-08T00:45:14;137.30;;;51.92;;
84796;SDS011;75028;51.374;21.078;2024-03-08T00:47:40;117.72;;;48.47;;
84796;SDS011;75028;51.374;21.078;2024-03-08T00:50:08;129.00;;;51.45;;
84796;SDS011;75028;51.374;21.078;2024-03-08T00:52:34;134.85;;;53.88;;
84796;SDS011;75028;51.374;21.078;2024-03-08T00:55:00;125.90;;;50.42;;
84796;SDS011;75028;51.374;21.078;2024-03-08T00:57:27;143.95;;;54.75;;
84796;SDS011;75028;51.374;21.078;2024-03-08T00:59:53;140.35;;;52.88;;
84796;SDS011;75028;51.374;21.078;2024-03-08T01:02:19;124.78;;;52.25;;
84796;SDS011;75028;51.374;21.078;2024-03-08T01:04:46;110.60;;;49.40;;
84796;SDS011;75028;51.374;21.078;2024-03-08T01:07:13;136.88;;;51.63;;
84796;SDS011;75028;51.374;21.078;2024-03-08T01:09:39;120.05;;;44.90;;
84796;SDS011;75028;51.374;21.078;2024-03-08T01:12:05;121.53;;;47.63;;
84796;SDS011;75028;51.374;21.078;2024-03-08T01:14:33;110.80;;;43.78;;
84796;SDS011;75028;51.374;21.078;2024-03-08T01:16:59;126.07;;;44.80;;
84796;SDS011;75028;51.374;21.078;2024-03-08T01:19:25;123.28;;;47.95;;
84796;SDS011;75028;51.374;21.078;2024-03-08T01:21:51;105.90;;;42.33;;
84796;SDS011;75028;51.374;21.078;2024-03-08T01:24:17;115.80;;;45.40;;
84796;SDS011;75028;51.374;21.078;2024-03-08T01:26:43;117.75;;;45.70;;
84796;SDS011;75028;51.374;21.078;2024-03-08T01:29:10;99.20;;;42.55;;
84796;SDS011;75028;51.374;21.078;2024-03-08T01:31:36;127.85;;;43.13;;
84796;SDS011;75028;51.374;21.078;2024-03-08T01:34:02;107.95;;;45.33;;
84796;SDS011;75028;51.374;21.078;2024-03-08T01:36:28;109.53;;;42.03;;
84796;SDS011;75028;51.374;21.078;2024-03-08T01:38:54;111.05;;;45.88;;
84796;SDS011;75028;51.374;21.078;2024-03-08T01:41:20;101.85;;;41.17;;
84796;SDS011;75028;51.374;21.078;2024-03-08T01:43:47;94.50;;;38.63;;
84796;SDS011;75028;51.374;21.078;2024-03-08T01:46:13;92.70;;;37.50;;
84796;SDS011;75028;51.374;21.078;2024-03-08T01:48:43;108.13;;;43.22;;
84796;SDS011;75028;51.374;21.078;2024-03-08T01:51:10;93.13;;;37.05;;
84796;SDS011;75028;51.374;21.078;2024-03-08T01:53:37;93.57;;;36.72;;
84796;SDS011;75028;51.374;21.078;2024-03-08T01:56:04;89.18;;;38.00;;
84796;SDS011;75028;51.374;21.078;2024-03-08T01:58:32;77.05;;;33.45;;
84796;SDS011;75028;51.374;21.078;2024-03-08T02:00:58;83.93;;;35.97;;
84796;SDS011;75028;51.374;21.078;2024-03-08T02:03:25;89.18;;;35.65;;
84796;SDS011;75028;51.374;21.078;2024-03-08T02:05:51;94.75;;;35.40;;
84796;SDS011;75028;51.374;21.078;2024-03-08T02:08:18;104.63;;;39.63;;
84796;SDS011;75028;51.374;21.078;2024-03-08T02:10:45;99.97;;;37.17;;
84796;SDS011;75028;51.374;21.078;2024-03-08T02:13:11;88.80;;;35.00;;
84796;SDS011;75028;51.374;21.078;2024-03-08T02:15:49;77.97;;;33.00;;
84796;SDS011;75028;51.374;21.078;2024-03-08T02:18:20;87.60;;;33.83;;
84796;SDS011;75028;51.374;21.078;2024-03-08T02:20:53;75.00;;;33.83;;
84796;SDS011;75028;51.374;21.078;2024-03-08T02:23:23;96.32;;;35.25;;
84796;SDS011;75028;51.374;21.078;2024-03-08T02:25:52;79.82;;;31.95;;
84796;SDS011;75028;51.374;21.078;2024-03-08T02:28:20;78.05;;;34.55;;
84796;SDS011;75028;51.374;21.078;2024-03-08T02:30:46;89.63;;;36.83;;
84796;SDS011;75028;51.374;21.078;2024-03-08T02:33:13;87.88;;;36.55;;
84796;SDS011;75028;51.374;21.078;2024-03-08T02:35:43;81.95;;;35.50;;
84796;SDS011;75028;51.374;21.078;2024-03-08T02:38:17;87.43;;;34.88;;
84796;SDS011;75028;51.374;21.078;2024-03-08T02:40:44;93.90;;;39.15;;
84796;SDS011;75028;51.374;21.078;2024-03-08T02:43:12;104.10;;;42.67;;
84796;SDS011;75028;51.374;21.078;2024-03-08T02:45:40;95.47;;;38.88;;
84796;SDS011;75028;51.374;21.078;2024-03-08T02:48:07;102.50;;;40.53;;
84796;SDS011;75028;51.374;21.078;2024-03-08T02:50:34;103.15;;;42.05;;
84796;SDS011;75028;51.374;21.078;2024-03-08T02:53:03;108.22;;;41.15;;
84796;SDS011;75028;51.374;21.078;2024-03-08T02:55:29;100.70;;;43.35;;
84796;SDS011;75028;51.374;21.078;2024-03-08T02:57:56;93.32;;;40.00;;
84796;SDS011;75028;51.374;21.078;2024-03-08T03:00:22;91.07;;;38.95;;
84796;SDS011;75028;51.374;21.078;2024-03-08T03:02:50;100.28;;;39.53;;
84796;SDS011;75028;51.374;21.078;2024-03-08T03:05:22;89.85;;;39.25;;
84796;SDS011;75028;51.374;21.078;2024-03-08T03:07:50;99.28;;;40.25;;
84796;SDS011;75028;51.374;21.078;2024-03-08T03:10:16;97.53;;;40.13;;
84796;SDS011;75028;51.374;21.078;2024-03-08T03:12:44;100.00;;;40.47;;
84796;SDS011;75028;51.374;21.078;2024-03-08T03:15:14;104.70;;;39.50;;
84796;SDS011;75028;51.374;21.078;2024-03-08T03:17:46;91.80;;;36.63;;
84796;SDS011;75028;51.374;21.078;2024-03-08T03:20:13;95.55;;;38.67;;
84796;SDS011;75028;51.374;21.078;2024-03-08T03:22:40;88.30;;;36.97;;
84796;SDS011;75028;51.374;21.078;2024-03-08T03:25:07;88.45;;;36.28;;
84796;SDS011;75028;51.374;21.078;2024-03-08T03:27:35;98.57;;;37.80;;
84796;SDS011;75028;51.374;21.078;2024-03-08T03:30:02;93.38;;;35.95;;
84796;SDS011;75028;51.374;21.078;2024-03-08T03:32:49;88.57;;;36.67;;
84796;SDS011;75028;51.374;21.078;2024-03-08T03:35:16;85.53;;;37.28;;
84796;SDS011;75028;51.374;21.078;2024-03-08T03:37:43;89.15;;;37.35;;
84796;SDS011;75028;51.374;21.078;2024-03-08T03:40:28;78.95;;;35.33;;
84796;SDS011;75028;51.374;21.078;2024-03-08T03:42:55;98.13;;;38.28;;
84796;SDS011;75028;51.374;21.078;2024-03-08T03:45:21;87.85;;;39.38;;
84796;SDS011;75028;51.374;21.078;2024-03-08T03:47:48;97.63;;;41.08;;
84796;SDS011;75028;51.374;21.078;2024-03-08T03:50:14;103.28;;;39.10;;
84796;SDS011;75028;51.374;21.078;2024-03-08T03:52:40;92.10;;;37.28;;
84796;SDS011;75028;51.374;21.078;2024-03-08T03:55:07;87.32;;;35.83;;
84796;SDS011;75028;51.374;21.078;2024-03-08T04:02:28;77.65;;;33.47;;
84796;SDS011;75028;51.374;21.078;2024-03-08T04:04:54;80.13;;;34.53;;
84796;SDS011;75028;51.374;21.078;2024-03-08T04:07:20;86.13;;;34.85;;
84796;SDS011;75028;51.374;21.078;2024-03-08T04:09:46;94.07;;;39.38;;
84796;SDS011;75028;51.374;21.078;2024-03-08T04:12:13;88.30;;;36.80;;
84796;SDS011;75028;51.374;21.078;2024-03-08T04:14:41;88.72;;;37.13;;
84796;SDS011;75028;51.374;21.078;2024-03-08T04:17:08;88.68;;;35.78;;
84796;SDS011;75028;51.374;21.078;2024-03-08T04:19:34;90.63;;;38.85;;
84796;SDS011;75028;51.374;21.078;2024-03-08T04:22:01;89.22;;;38.08;;
84796;SDS011;75028;51.374;21.078;2024-03-08T04:24:27;90.35;;;39.42;;
84796;SDS011;75028;51.374;21.078;2024-03-08T04:26:54;95.90;;;39.00;;
84796;SDS011;75028;51.374;21.078;2024-03-08T04:29:20;72.03;;;35.40;;
84796;SDS011;75028;51.374;21.078;2024-03-08T04:31:47;91.40;;;38.03;;
84796;SDS011;75028;51.374;21.078;2024-03-08T04:34:13;96.68;;;39.70;;
84796;SDS011;75028;51.374;21.078;2024-03-08T04:39:06;81.18;;;36.15;;
84796;SDS011;75028;51.374;21.078;2024-03-08T04:41:35;74.75;;;33.70;;
84796;SDS011;75028;51.374;21.078;2024-03-08T04:44:02;81.85;;;34.25;;
84796;SDS011;75028;51.374;21.078;2024-03-08T04:46:29;83.43;;;33.38;;
84796;SDS011;75028;51.374;21.078;2024-03-08T04:48:55;87.43;;;34.40;;
84796;SDS011;75028;51.374;21.078;2024-03-08T04:51:21;87.75;;;35.70;;
84796;SDS011;75028;51.374;21.078;2024-03-08T04:53:47;80.45;;;34.88;;
84796;SDS011;75028;51.374;21.078;2024-03-08T04:56:13;85.45;;;33.97;;
84796;SDS011;75028;51.374;21.078;2024-03-08T04:58:39;80.32;;;32.42;;
84796;SDS011;75028;51.374;21.078;2024-03-08T05:01:05;76.97;;;31.75;;
84796;SDS011;75028;51.374;21.078;2024-03-08T05:03:31;82.15;;;33.38;;
84796;SDS011;75028;51.374;21.078;2024-03-08T05:05:57;82.78;;;31.63;;
84796;SDS011;75028;51.374;21.078;2024-03-08T05:08:23;82.53;;;35.10;;
84796;SDS011;75028;51.374;21.078;2024-03-08T05:10:50;73.60;;;33.95;;
84796;SDS011;75028;51.374;21.078;2024-03-08T05:13:16;76.15;;;31.15;;
84796;SDS011;75028;51.374;21.078;2024-03-08T05:15:47;73.43;;;31.52;;
84796;SDS011;75028;51.374;21.078;2024-03-08T05:18:15;76.00;;;33.47;;
84796;SDS011;75028;51.374;21.078;2024-03-08T05:20:41;89.97;;;34.97;;
84796;SDS011;75028;51.374;21.078;2024-03-08T05:23:07;68.55;;;31.48;;
84796;SDS011;75028;51.374;21.078;2024-03-08T05:25:34;74.70;;;31.42;;
84796;SDS011;75028;51.374;21.078;2024-03-08T05:27:59;92.28;;;33.38;;
84796;SDS011;75028;51.374;21.078;2024-03-08T05:30:26;89.00;;;35.13;;
84796;SDS011;75028;51.374;21.078;2024-03-08T05:32:52;77.60;;;32.53;;
84796;SDS011;75028;51.374;21.078;2024-03-08T05:35:19;78.40;;;31.88;;
84796;SDS011;75028;51.374;21.078;2024-03-08T05:37:46;81.38;;;32.63;;
84796;SDS011;75028;51.374;21.078;2024-03-08T05:40:12;92.82;;;35.05;;
84796;SDS011;75028;51.374;21.078;2024-03-08T05:42:38;105.50;;;38.22;;
84796;SDS011;75028;51.374;21.078;2024-03-08T05:45:05;98.80;;;36.65;;
84796;SDS011;75028;51.374;21.078;2024-03-08T05:47:35;84.00;;;33.28;;
84796;SDS011;75028;51.374;21.078;2024-03-08T05:50:02;93.57;;;38.67;;
84796;SDS011;75028;51.374;21.078;2024-03-08T05:52:28;101.13;;;39.38;;
84796;SDS011;75028;51.374;21.078;2024-03-08T05:54:54;183.85;;;65.95;;
84796;SDS011;75028;51.374;21.078;2024-03-08T05:57:20;244.18;;;81.30;;
84796;SDS011;75028;51.374;21.078;2024-03-08T05:59:48;155.32;;;61.20;;
84796;SDS011;75028;51.374;21.078;2024-03-08T06:02:14;127.82;;;48.97;;
84796;SDS011;75028;51.374;21.078;2024-03-08T06:04:45;99.45;;;40.05;;
84796;SDS011;75028;51.374;21.078;2024-03-08T06:07:12;98.40;;;42.22;;
84796;SDS011;75028;51.374;21.078;2024-03-08T06:09:38;110.57;;;42.83;;
84796;SDS011;75028;51.374;21.078;2024-03-08T06:12:04;97.60;;;40.08;;
84796;SDS011;75028;51.374;21.078;2024-03-08T06:14:32;102.25;;;43.38;;
84796;SDS011;75028;51.374;21.078;2024-03-08T06:16:58;109.05;;;45.90;;
84796;SDS011;75028;51.374;21.078;2024-03-08T06:19:26;99.13;;;41.92;;
84796;SDS011;75028;51.374;21.078;2024-03-08T06:21:53;104.60;;;41.83;;
84796;SDS011;75028;51.374;21.078;2024-03-08T06:24:19;106.43;;;45.47;;
84796;SDS011;75028;51.374;21.078;2024-03-08T06:26:45;118.90;;;47.35;;
84796;SDS011;75028;51.374;21.078;2024-03-08T06:29:11;134.02;;;54.17;;
84796;SDS011;75028;51.374;21.078;2024-03-08T06:31:38;109.57;;;47.03;;
84796;SDS011;75028;51.374;21.078;2024-03-08T06:34:04;113.82;;;46.28;;
84796;SDS011;75028;51.374;21.078;2024-03-08T06:36:33;99.10;;;45.53;;
84796;SDS011;75028;51.374;21.078;2024-03-08T06:38:59;112.43;;;49.05;;
84796;SDS011;75028;51.374;21.078;2024-03-08T06:41:25;100.50;;;47.03;;
84796;SDS011;75028;51.374;21.078;2024-03-08T06:43:52;103.88;;;43.83;;
84796;SDS011;75028;51.374;21.078;2024-03-08T06:46:24;114.30;;;47.35;;
84796;SDS011;75028;51.374;21.078;2024-03-08T06:48:50;106.57;;;43.25;;
84796;SDS011;75028;51.374;21.078;2024-03-08T06:51:16;102.45;;;44.28;;
84796;SDS011;75028;51.374;21.078;2024-03-08T06:53:44;111.60;;;46.35;;
84796;SDS011;75028;51.374;21.078;2024-03-08T06:56:10;100.68;;;44.28;;
84796;SDS011;75028;51.374;21.078;2024-03-08T06:58:36;107.78;;;45.40;;
84796;SDS011;75028;51.374;21.078;2024-03-08T07:01:02;105.97;;;44.25;;
84796;SDS011;75028;51.374;21.078;2024-03-08T07:03:33;97.93;;;44.15;;
84796;SDS011;75028;51.374;21.078;2024-03-08T07:05:59;97.88;;;41.78;;
84796;SDS011;75028;51.374;21.078;2024-03-08T07:08:28;100.10;;;43.65;;
84796;SDS011;75028;51.374;21.078;2024-03-08T07:10:55;102.85;;;43.63;;
84796;SDS011;75028;51.374;21.078;2024-03-08T07:13:22;93.85;;;41.25;;
84796;SDS011;75028;51.374;21.078;2024-03-08T07:15:48;85.00;;;36.63;;
84796;SDS011;75028;51.374;21.078;2024-03-08T07:18:15;81.82;;;35.83;;
84796;SDS011;75028;51.374;21.078;2024-03-08T07:20:41;86.93;;;40.50;;
84796;SDS011;75028;51.374;21.078;2024-03-08T07:23:08;73.45;;;34.90;;
84796;SDS011;75028;51.374;21.078;2024-03-08T07:25:34;84.45;;;42.22;;
84796;SDS011;75028;51.374;21.078;2024-03-08T07:28:01;88.32;;;39.38;;
84796;SDS011;75028;51.374;21.078;2024-03-08T07:30:27;75.97;;;32.72;;
84796;SDS011;75028;51.374;21.078;2024-03-08T07:33:12;67.53;;;30.88;;
84796;SDS011;75028;51.374;21.078;2024-03-08T07:35:38;48.05;;;21.15;;
84796;SDS011;75028;51.374;21.078;2024-03-08T07:38:04;51.22;;;23.42;;
84796;SDS011;75028;51.374;21.078;2024-03-08T07:40:37;33.60;;;17.50;;
84796;SDS011;75028;51.374;21.078;2024-03-08T07:43:10;31.60;;;15.63;;
84796;SDS011;75028;51.374;21.078;2024-03-08T07:45:39;30.20;;;15.52;;
84796;SDS011;75028;51.374;21.078;2024-03-08T07:48:06;23.85;;;12.95;;
84796;SDS011;75028;51.374;21.078;2024-03-08T07:50:38;26.45;;;13.70;;
84796;SDS011;75028;51.374;21.078;2024-03-08T07:53:05;30.48;;;14.25;;
84796;SDS011;75028;51.374;21.078;2024-03-08T07:55:32;29.60;;;14.02;;
84796;SDS011;75028;51.374;21.078;2024-03-08T07:57:59;38.05;;;15.60;;
84796;SDS011;75028;51.374;21.078;2024-03-08T08:00:25;37.97;;;15.65;;
84796;SDS011;75028;51.374;21.078;2024-03-08T08:02:53;29.00;;;15.48;;
84796;SDS011;75028;51.374;21.078;2024-03-08T08:05:19;34.25;;;16.67;;
84796;SDS011;75028;51.374;21.078;2024-03-08T08:07:46;33.80;;;16.58;;
84796;SDS011;75028;51.374;21.078;2024-03-08T08:10:12;38.25;;;17.13;;
84796;SDS011;75028;51.374;21.078;2024-03-08T08:12:50;35.92;;;16.02;;
84796;SDS011;75028;51.374;21.078;2024-03-08T08:15:19;41.78;;;16.92;;
84796;SDS011;75028;51.374;21.078;2024-03-08T08:20:12;40.75;;;16.80;;
84796;SDS011;75028;51.374;21.078;2024-03-08T08:22:39;30.52;;;15.57;;
84796;SDS011;75028;51.374;21.078;2024-03-08T08:25:06;36.50;;;16.00;;
84796;SDS011;75028;51.374;21.078;2024-03-08T08:27:33;35.55;;;15.65;;
84796;SDS011;75028;51.374;21.078;2024-03-08T08:29:59;36.42;;;16.88;;
84796;SDS011;75028;51.374;21.078;2024-03-08T08:32:26;33.67;;;15.93;;
84796;SDS011;75028;51.374;21.078;2024-03-08T08:34:52;35.45;;;16.48;;
84796;SDS011;75028;51.374;21.078;2024-03-08T08:37:18;42.20;;;16.67;;
84796;SDS011;75028;51.374;21.078;2024-03-08T08:39:44;38.53;;;16.70;;
84796;SDS011;75028;51.374;21.078;2024-03-08T08:42:10;34.08;;;16.65;;
84796;SDS011;75028;51.374;21.078;2024-03-08T08:44:36;31.35;;;14.55;;
84796;SDS011;75028;51.374;21.078;2024-03-08T08:47:03;24.27;;;13.40;;
84796;SDS011;75028;51.374;21.078;2024-03-08T08:49:29;27.77;;;12.90;;
84796;SDS011;75028;51.374;21.078;2024-03-08T08:51:56;26.65;;;13.15;;
84796;SDS011;75028;51.374;21.078;2024-03-08T08:54:24;31.30;;;14.02;;
84796;SDS011;75028;51.374;21.078;2024-03-08T08:56:51;26.85;;;13.27;;
84796;SDS011;75028;51.374;21.078;2024-03-08T08:59:16;29.80;;;13.23;;
84796;SDS011;75028;51.374;21.078;2024-03-08T09:01:46;32.17;;;15.00;;
84796;SDS011;75028;51.374;21.078;2024-03-08T09:04:15;32.88;;;15.35;;
84796;SDS011;75028;51.374;21.078;2024-03-08T09:09:08;23.13;;;11.18;;
84796;SDS011;75028;51.374;21.078;2024-03-08T09:11:34;23.75;;;11.15;;
84796;SDS011;75028;51.374;21.078;2024-03-08T09:14:00;27.73;;;11.00;;
84796;SDS011;75028;51.374;21.078;2024-03-08T09:16:27;23.95;;;10.90;;
84796;SDS011;75028;51.374;21.078;2024-03-08T09:18:53;25.35;;;10.07;;
84796;SDS011;75028;51.374;21.078;2024-03-08T09:21:19;25.90;;;12.23;;
84796;SDS011;75028;51.374;21.078;2024-03-08T09:23:45;30.30;;;14.07;;
84796;SDS011;75028;51.374;21.078;2024-03-08T09:26:12;28.35;;;12.10;;
84796;SDS011;75028;51.374;21.078;2024-03-08T09:28:41;26.45;;;12.93;;
84796;SDS011;75028;51.374;21.078;2024-03-08T09:31:08;23.63;;;11.15;;
84796;SDS011;75028;51.374;21.078;2024-03-08T09:33:35;32.05;;;17.08;;
84796;SDS011;75028;51.374;21.078;2024-03-08T09:36:02;30.88;;;12.15;;
84796;SDS011;75028;51.374;21.078;2024-03-08T09:38:29;29.30;;;12.07;;
84796;SDS011;75028;51.374;21.078;2024-03-08T09:40:55;24.00;;;11.25;;
84796;SDS011;75028;51.374;21.078;2024-03-08T09:43:22;23.98;;;11.52;;
84796;SDS011;75028;51.374;21.078;2024-03-08T09:45:49;25.85;;;12.20;;
84796;SDS011;75028;51.374;21.078;2024-03-08T09:48:16;54.92;;;23.70;;
84796;SDS011;75028;51.374;21.078;2024-03-08T09:50:45;37.38;;;17.40;;
84796;SDS011;75028;51.374;21.078;2024-03-08T09:53:11;27.02;;;13.18;;
84796;SDS011;75028;51.374;21.078;2024-03-08T09:55:38;26.42;;;13.43;;
84796;SDS011;75028;51.374;21.078;2024-03-08T09:58:08;27.70;;;12.60;;
84796;SDS011;75028;51.374;21.078;2024-03-08T10:00:56;27.90;;;13.93;;
84796;SDS011;75028;51.374;21.078;2024-03-08T10:03:23;32.33;;;13.65;;
84796;SDS011;75028;51.374;21.078;2024-03-08T10:05:54;34.42;;;15.07;;
84796;SDS011;75028;51.374;21.078;2024-03-08T10:08:26;34.22;;;16.88;;
84796;SDS011;75028;51.374;21.078;2024-03-08T10:10:55;34.88;;;15.80;;
84796;SDS011;75028;51.374;21.078;2024-03-08T10:13:24;32.30;;;13.75;;
84796;SDS011;75028;51.374;21.078;2024-03-08T10:15:53;30.55;;;16.13;;
84796;SDS011;75028;51.374;21.078;2024-03-08T10:18:19;31.90;;;14.73;;
84796;SDS011;75028;51.374;21.078;2024-03-08T10:21:01;27.27;;;13.32;;
84796;SDS011;75028;51.374;21.078;2024-03-08T10:23:31;27.50;;;11.93;;
84796;SDS011;75028;51.374;21.078;2024-03-08T10:26:09;28.38;;;13.45;;
84796;SDS011;75028;51.374;21.078;2024-03-08T10:28:45;24.85;;;9.50;;
84796;SDS011;75028;51.374;21.078;2024-03-08T10:31:15;16.10;;;8.23;;
84796;SDS011;75028;51.374;21.078;2024-03-08T10:33:43;22.50;;;8.73;;
84796;SDS011;75028;51.374;21.078;2024-03-08T10:36:10;19.02;;;8.85;;
84796;SDS011;75028;51.374;21.078;2024-03-08T10:38:38;20.17;;;11.00;;
84796;SDS011;75028;51.374;21.078;2024-03-08T10:41:06;18.05;;;8.48;;
84796;SDS011;75028;51.374;21.078;2024-03-08T10:44:18;22.15;;;9.82;;
84796;SDS011;75028;51.374;21.078;2024-03-08T10:46:36;19.00;;;10.70;;
84796;SDS011;75028;51.374;21.078;2024-03-08T10:49:17;19.42;;;10.48;;
84796;SDS011;75028;51.374;21.078;2024-03-08T10:51:48;17.83;;;9.85;;
84796;SDS011;75028;51.374;21.078;2024-03-08T10:54:17;17.90;;;9.05;;
84796;SDS011;75028;51.374;21.078;2024-03-08T10:56:45;15.48;;;8.45;;
84796;SDS011;75028;51.374;21.078;2024-03-08T10:59:14;19.90;;;9.50;;
84796;SDS011;75028;51.374;21.078;2024-03-08T11:01:43;22.73;;;10.02;;
84796;SDS011;75028;51.374;21.078;2024-03-08T11:04:11;19.73;;;8.75;;
84796;SDS011;75028;51.374;21.078;2024-03-08T11:15:00;17.10;;;9.30;;
84796;SDS011;75028;51.374;21.078;2024-03-08T11:20:11;19.23;;;8.98;;
84796;SDS011;75028;51.374;21.078;2024-03-08T11:23:01;18.98;;;8.65;;
84796;SDS011;75028;51.374;21.078;2024-03-08T11:25:30;15.32;;;8.10;;
84796;SDS011;75028;51.374;21.078;2024-03-08T11:30:42;21.48;;;8.73;;
84796;SDS011;75028;51.374;21.078;2024-03-08T11:33:30;17.10;;;8.32;;
84796;SDS011;75028;51.374;21.078;2024-03-08T11:38:50;21.05;;;10.05;;
84796;SDS011;75028;51.374;21.078;2024-03-08T11:41:21;21.80;;;9.82;;
84796;SDS011;75028;51.374;21.078;2024-03-08T11:43:49;20.20;;;8.70;;
84796;SDS011;75028;51.374;21.078;2024-03-08T11:46:26;19.05;;;9.50;;
84796;SDS011;75028;51.374;21.078;2024-03-08T11:48:54;17.65;;;9.15;;
84796;SDS011;75028;51.374;21.078;2024-03-08T11:51:21;15.82;;;7.25;;
84796;SDS011;75028;51.374;21.078;2024-03-08T11:53:49;20.98;;;8.30;;
84796;SDS011;75028;51.374;21.078;2024-03-08T11:56:16;14.00;;;7.10;;
84796;SDS011;75028;51.374;21.078;2024-03-08T11:58:51;17.88;;;8.20;;
84796;SDS011;75028;51.374;21.078;2024-03-08T12:01:18;16.83;;;8.18;;
84796;SDS011;75028;51.374;21.078;2024-03-08T12:03:45;47.83;;;25.08;;
84796;SDS011;75028;51.374;21.078;2024-03-08T12:06:24;17.55;;;8.52;;
84796;SDS011;75028;51.374;21.078;2024-03-08T12:08:51;15.88;;;8.02;;
84796;SDS011;75028;51.374;21.078;2024-03-08T12:11:17;13.18;;;6.75;;
84796;SDS011;75028;51.374;21.078;2024-03-08T12:13:48;12.68;;;6.53;;
84796;SDS011;75028;51.374;21.078;2024-03-08T12:16:20;16.50;;;7.65;;
84796;SDS011;75028;51.374;21.078;2024-03-08T12:18:50;15.95;;;7.55;;
84796;SDS011;75028;51.374;21.078;2024-03-08T12:21:17;571.22;;;234.95;;
84796;SDS011;75028;51.374;21.078;2024-03-08T12:23:48;19.55;;;8.45;;
84796;SDS011;75028;51.374;21.078;2024-03-08T12:26:35;18.67;;;8.95;;
84796;SDS011;75028;51.374;21.078;2024-03-08T12:31:57;13.85;;;7.30;;
84796;SDS011;75028;51.374;21.078;2024-03-08T12:34:26;17.92;;;8.38;;
84796;SDS011;75028;51.374;21.078;2024-03-08T12:36:54;15.73;;;7.57;;
84796;SDS011;75028;51.374;21.078;2024-03-08T12:39:21;14.98;;;6.90;;
84796;SDS011;75028;51.374;21.078;2024-03-08T12:41:51;13.93;;;6.47;;
84796;SDS011;75028;51.374;21.078;2024-03-08T12:44:17;16.45;;;6.28;;
84796;SDS011;75028;51.374;21.078;2024-03-08T12:46:44;13.48;;;7.28;;
84796;SDS011;75028;51.374;21.078;2024-03-08T12:49:10;13.20;;;6.28;;
84796;SDS011;75028;51.374;21.078;2024-03-08T12:51:38;15.25;;;7.35;;
84796;SDS011;75028;51.374;21.078;2024-03-08T12:54:05;14.25;;;6.90;;
84796;SDS011;75028;51.374;21.078;2024-03-08T12:56:33;16.92;;;7.57;;
84796;SDS011;75028;51.374;21.078;2024-03-08T12:59:06;16.63;;;7.75;;
84796;SDS011;75028;51.374;21.078;2024-03-08T13:01:33;17.63;;;7.75;;
84796;SDS011;75028;51.374;21.078;2024-03-08T13:04:05;16.85;;;8.45;;
84796;SDS011;75028;51.374;21.078;2024-03-08T13:06:34;17.83;;;7.60;;
84796;SDS011;75028;51.374;21.078;2024-03-08T13:09:04;18.75;;;8.25;;
84796;SDS011;75028;51.374;21.078;2024-03-08T13:11:31;17.30;;;7.93;;
84796;SDS011;75028;51.374;21.078;2024-03-08T13:14:05;15.70;;;7.70;;
84796;SDS011;75028;51.374;21.078;2024-03-08T13:16:31;18.33;;;8.10;;
84796;SDS011;75028;51.374;21.078;2024-03-08T13:18:57;16.98;;;8.30;;
84796;SDS011;75028;51.374;21.078;2024-03-08T13:21:23;15.80;;;7.15;;
84796;SDS011;75028;51.374;21.078;2024-03-08T13:23:50;14.38;;;6.28;;
84796;SDS011;75028;51.374;21.078;2024-03-08T13:26:18;14.90;;;7.88;;
84796;SDS011;75028;51.374;21.078;2024-03-08T13:31:14;18.35;;;8.23;;
84796;SDS011;75028;51.374;21.078;2024-03-08T13:33:41;16.15;;;8.63;;
84796;SDS011;75028;51.374;21.078;2024-03-08T13:36:13;17.45;;;7.85;;
84796;SDS011;75028;51.374;21.078;2024-03-08T13:38:47;13.98;;;7.78;;
84796;SDS011;75028;51.374;21.078;2024-03-08T13:41:15;15.30;;;7.25;;
84796;SDS011;75028;51.374;21.078;2024-03-08T13:43:45;15.07;;;8.40;;
84796;SDS011;75028;51.374;21.078;2024-03-08T13:46:15;19.55;;;7.82;;
84796;SDS011;75028;51.374;21.078;2024-03-08T13:48:42;14.18;;;7.50;;
84796;SDS011;75028;51.374;21.078;2024-03-08T13:51:08;16.83;;;7.32;;
84796;SDS011;75028;51.374;21.078;2024-03-08T13:56:06;12.02;;;7.20;;
84796;SDS011;75028;51.374;21.078;2024-03-08T13:58:36;15.43;;;7.10;;
84796;SDS011;75028;51.374;21.078;2024-03-08T14:01:02;14.98;;;7.25;;
84796;SDS011;75028;51.374;21.078;2024-03-08T14:03:31;15.85;;;7.25;;
84796;SDS011;75028;51.374;21.078;2024-03-08T14:05:58;17.60;;;7.28;;
84796;SDS011;75028;51.374;21.078;2024-03-08T14:08:26;15.48;;;7.18;;
84796;SDS011;75028;51.374;21.078;2024-03-08T14:10:52;18.08;;;8.93;;
84796;SDS011;75028;51.374;21.078;2024-03-08T14:13:19;19.27;;;9.10;;
84796;SDS011;75028;51.374;21.078;2024-03-08T14:15:46;16.83;;;8.55;;
84796;SDS011;75028;51.374;21.078;2024-03-08T14:18:14;19.63;;;8.35;;
84796;SDS011;75028;51.374;21.078;2024-03-08T14:20:41;17.35;;;8.77;;
84796;SDS011;75028;51.374;21.078;2024-03-08T14:23:07;19.95;;;8.45;;
84796;SDS011;75028;51.374;21.078;2024-03-08T14:25:34;16.98;;;8.32;;
84796;SDS011;75028;51.374;21.078;2024-03-08T14:28:00;15.20;;;7.80;;
84796;SDS011;75028;51.374;21.078;2024-03-08T14:30:33;15.85;;;7.75;;
84796;SDS011;75028;51.374;21.078;2024-03-08T14:33:07;16.20;;;7.85;;
84796;SDS011;75028;51.374;21.078;2024-03-08T14:35:36;14.13;;;7.00;;
84796;SDS011;75028;51.374;21.078;2024-03-08T14:38:07;13.45;;;7.28;;
84796;SDS011;75028;51.374;21.078;2024-03-08T14:40:37;14.65;;;8.05;;
84796;SDS011;75028;51.374;21.078;2024-03-08T14:43:03;16.90;;;7.90;;
84796;SDS011;75028;51.374;21.078;2024-03-08T14:45:30;15.15;;;8.52;;
84796;SDS011;75028;51.374;21.078;2024-03-08T14:47:57;19.13;;;8.93;;
84796;SDS011;75028;51.374;21.078;2024-03-08T14:50:23;18.80;;;8.40;;
84796;SDS011;75028;51.374;21.078;2024-03-08T14:52:51;13.23;;;7.45;;